Ginys del Meteocat

Dades de l'estació automàtica Maials

?
?
Resum diari 22:00 TU
Dades diàries de l'estació meteorològica
Temperatura mitjana 5.0 °C
Temperatura màxima 10.2 °C 15:38 TU
Temperatura mínima 0.1 °C 7:48 TU
Humitat relativa mitjana 96%
Precipitació acumulada 0.1 mm
Ratxa màxima del vent (2 m) 10.8 km/h - 316º 12:17 TU
Irradiació solar global 9.8 MJ/m2

El tram horari està expressat en Temps Universal (TU). Cal sumar una hora en horari d'hivern i dues en horari d'estiu per passar a l'hora oficial.

Maials

Metadades estació meteorol´gica
Municipi Maials
Comarca Segrià
Altitud 350 m
Data alta 20.12.2000
Estat actual Operativa
Dades de període
Període
TU
TM
°C
TX
°C
TN
°C
HRM
%
PPT
mm
VVM (2 m)
km/h
DVM (2 m)
graus
VVX (2 m)
km/h
RS
W/m2
00:00 - 00:30 2.6 3.2 2.1 100 0.0 0.0 46 2.9 0
00:30 - 01:00 3.5 3.9 2.8 100 0.0 0.4 348 2.9 0
01:00 - 01:30 2.8 3.7 2.6 100 0.0 0.0 137 0.7 0
01:30 - 02:00 3.0 3.6 2.7 100 0.0 0.4 90 1.8 0
02:00 - 02:30 2.3 2.9 2.0 100 0.0 0.0 331 1.1 0
02:30 - 03:00 2.2 3.1 1.3 100 0.0 1.1 15 4.3 0
03:00 - 03:30 1.7 2.3 1.2 100 0.0 0.0 271 1.4 0
03:30 - 04:00 1.4 2.2 0.9 100 0.0 0.7 127 3.2 0
04:00 - 04:30 1.3 1.7 0.9 100 0.0 0.4 120 2.5 0
04:30 - 05:00 2.0 3.1 1.3 100 0.0 1.4 128 2.9 0
05:00 - 05:30 2.5 3.2 1.6 100 0.0 1.1 65 5.0 0
05:30 - 06:00 2.0 2.8 1.3 100 0.1 0.4 291 4.0 0
06:00 - 06:30 0.8 1.5 0.2 100 0.0 0.4 44 1.8 3
06:30 - 07:00 0.7 1.8 0.4 100 0.0 0.4 355 2.2 3
07:00 - 07:30 0.6 1.6 0.1 100 0.0 0.0 190 1.1 9
07:30 - 08:00 0.5 1.6 0.1 100 0.0 0.4 335 1.4 40
08:00 - 08:30 2.6 3.6 1.7 100 0.0 0.0 0 0.0 106
08:30 - 09:00 5.7 7.0 3.7 100 0.0 0.0 0 0.0 193
09:00 - 09:30 6.4 7.0 6.1 100 0.0 1.8 301 5.4 275
09:30 - 10:00 6.4 6.9 6.0 98 0.0 2.5 296 5.4 337
10:00 - 10:30 7.2 7.6 6.9 93 0.0 3.6 308 8.6 385
10:30 - 11:00 7.3 7.7 7.1 92 0.0 4.0 297 8.3 454
11:00 - 11:30 8.1 8.5 7.6 88 0.0 3.6 317 7.2 447
11:30 - 12:00 9.0 9.3 8.7 86 0.0 4.3 331 9.4 482
12:00 - 12:30 9.0 9.4 8.7 86 0.0 5.0 321 10.8 506
12:30 - 13:00 9.0 9.3 8.7 86 0.0 4.7 352 10.1 489
13:00 - 13:30 9.4 9.7 8.9 84 0.0 4.3 350 10.1 452
13:30 - 14:00 9.6 9.8 9.3 83 0.0 4.0 347 8.6 256
14:00 - 14:30 9.3 9.5 9.0 86 0.0 3.6 340 7.9 264
14:30 - 15:00 9.8 10.1 9.5 82 0.0 2.2 357 5.0 264
15:00 - 15:30 9.9 10.0 9.8 82 0.0 3.2 328 6.1 211
15:30 - 16:00 10.0 10.2 9.6 82 0.0 2.5 320 6.8 157
16:00 - 16:30 9.1 9.6 8.4 87 0.0 0.4 337 2.5 58
16:30 - 17:00 7.5 8.4 6.8 93 0.0 0.4 39 1.8 21
17:00 - 17:30 5.6 6.8 4.6 97 0.0 0.0 0 0.0 4
17:30 - 18:00 4.4 4.7 3.8 99 0.0 0.0 310 1.4 3
18:00 - 18:30 4.2 4.7 3.8 99 0.0 0.7 132 3.2 3
18:30 - 19:00 3.5 4.0 3.2 100 0.0 0.0 0 0.0 3
19:00 - 19:30 4.1 5.0 3.6 100 0.0 0.0 319 1.4 5
19:30 - 20:00 4.8 5.1 4.5 100 0.0 0.0 151 1.1 4
20:00 - 20:30 4.7 5.2 4.4 100 0.0 0.0 152 0.7 4
20:30 - 21:00 4.4 4.6 4.1 100 0.0 0.0 0 0.0 4
21:00 - 21:30 4.2 4.4 4.0 100 0.0 0.0 0 0.0 4
21:30 - 22:00 3.6 3.9 3.5 100 0.0 0.0 0 0.0 4
22:00 - 22:30 4.2 5.0 3.8 100 0.0 0.0 100 1.8 4

Les dades en taronja només han passat un control de qualitat automàtic. Resta pendent la seva validació definitiva.